createdAt,value
2023-03-30T00:00:34.010Z,12.13
2023-03-30T00:01:33.966Z,12.09
2023-03-30T00:02:33.948Z,12.10
2023-03-30T00:03:33.948Z,12.01
2023-03-30T00:04:33.952Z,12.09
2023-03-30T00:05:33.863Z,12.12
2023-03-30T00:06:33.831Z,12.10
2023-03-30T00:07:33.805Z,12.05
2023-03-30T00:08:33.786Z,12.05
2023-03-30T00:09:33.760Z,12.09
2023-03-30T00:10:33.730Z,12.07
2023-03-30T00:11:33.711Z,12.09
2023-03-30T00:12:33.682Z,12.10
2023-03-30T00:13:33.684Z,12.10
2023-03-30T00:14:33.637Z,12.05
2023-03-30T00:15:33.606Z,12.05
2023-03-30T00:16:33.654Z,12.10
2023-03-30T00:17:33.646Z,12.12
2023-03-30T00:18:33.543Z,12.12
2023-03-30T00:19:33.514Z,12.12
2023-03-30T00:20:33.551Z,12.13
2023-03-30T00:21:33.471Z,12.10
2023-03-30T00:22:33.444Z,12.09
2023-03-30T00:23:33.425Z,12.09
2023-03-30T00:24:33.395Z,12.13
2023-03-30T00:25:33.368Z,12.17
2023-03-30T00:26:33.350Z,12.12
2023-03-30T00:27:33.325Z,12.12
2023-03-30T00:28:33.303Z,12.12
2023-03-30T00:29:33.288Z,12.16
2023-03-30T00:30:33.256Z,12.13
2023-03-30T00:31:33.264Z,12.16
2023-03-30T00:32:33.275Z,12.13
2023-03-30T00:33:44.893Z,12.13
2023-03-30T00:34:33.164Z,12.13
2023-03-30T00:35:33.194Z,12.13
2023-03-30T00:36:33.105Z,12.13
2023-03-30T00:37:33.073Z,12.17
2023-03-30T00:38:33.070Z,12.13
2023-03-30T00:39:33.029Z,12.07
2023-03-30T00:40:33.003Z,12.10
2023-03-30T00:41:32.984Z,12.07
2023-03-30T00:42:32.958Z,12.07
2023-03-30T00:43:32.932Z,12.17
2023-03-30T00:44:32.908Z,12.04
2023-03-30T00:45:32.884Z,12.10
2023-03-30T00:46:33.174Z,12.10
2023-03-30T00:47:32.942Z,12.05
2023-03-30T00:48:32.852Z,12.19
2023-03-30T00:49:32.791Z,12.17
2023-03-30T00:50:32.768Z,12.17
2023-03-30T00:51:32.739Z,12.13
2023-03-30T00:52:32.721Z,12.12
2023-03-30T00:53:32.690Z,12.13
2023-03-30T00:54:32.676Z,12.12
2023-03-30T00:55:32.669Z,12.17
2023-03-30T00:56:32.627Z,12.12
2023-03-30T00:57:32.607Z,12.12
2023-03-30T00:58:32.587Z,12.16
2023-03-30T00:59:32.546Z,12.14
2023-03-30T01:00:32.531Z,12.12
2023-03-30T01:01:32.524Z,12.13
2023-03-30T01:02:32.537Z,12.07
2023-03-30T01:03:32.597Z,12.05
2023-03-30T01:04:32.460Z,12.02
2023-03-30T01:05:32.404Z,12.04
2023-03-30T01:06:32.387Z,12.12
2023-03-30T01:07:32.366Z,12.07
2023-03-30T01:08:32.344Z,12.14
2023-03-30T01:09:32.310Z,12.07
2023-03-30T01:10:32.287Z,12.10
2023-03-30T01:11:32.261Z,12.12
2023-03-30T01:12:32.237Z,12.09
2023-03-30T01:13:32.230Z,12.13
2023-03-30T01:14:32.192Z,12.07
2023-03-30T01:15:32.191Z,12.12
2023-03-30T01:16:32.143Z,12.12
2023-03-30T01:17:32.180Z,12.12
2023-03-30T01:18:32.095Z,12.19
2023-03-30T01:19:32.066Z,12.14
2023-03-30T01:20:32.071Z,12.23
2023-03-30T01:21:32.018Z,12.13
2023-03-30T01:22:32.000Z,12.13
2023-03-30T01:23:31.973Z,12.16
2023-03-30T01:24:31.954Z,12.13
2023-03-30T01:25:31.924Z,12.20
2023-03-30T01:26:31.906Z,12.14
2023-03-30T01:27:31.876Z,12.20
2023-03-30T01:28:31.849Z,12.16
2023-03-30T01:29:31.839Z,12.19
2023-03-30T01:30:31.815Z,12.13
2023-03-30T01:31:31.800Z,12.17
2023-03-30T01:32:31.817Z,12.19
2023-03-30T01:33:31.729Z,12.17
2023-03-30T01:34:31.710Z,12.20
2023-03-30T01:35:31.810Z,12.34
2023-03-30T01:36:31.766Z,12.34
2023-03-30T01:37:31.634Z,12.31
2023-03-30T01:38:31.610Z,12.42
2023-03-30T01:39:31.586Z,12.34
2023-03-30T01:40:31.564Z,12.37
2023-03-30T01:41:31.543Z,12.41
2023-03-30T01:42:31.519Z,12.37
2023-03-30T01:43:31.490Z,12.35
2023-03-30T01:44:31.477Z,12.41
2023-03-30T01:45:31.444Z,12.49
2023-03-30T01:46:31.460Z,12.53
2023-03-30T01:47:31.434Z,12.49
2023-03-30T01:48:31.372Z,12.50
2023-03-30T01:49:31.349Z,12.57
2023-03-30T01:50:31.322Z,12.62
2023-03-30T01:51:31.302Z,12.56
2023-03-30T01:52:31.304Z,12.65
2023-03-30T01:53:31.275Z,12.60
2023-03-30T01:54:31.231Z,12.67
2023-03-30T01:55:31.212Z,12.68
2023-03-30T01:56:31.178Z,12.72
2023-03-30T01:57:31.160Z,12.67
2023-03-30T01:58:31.150Z,12.67
2023-03-30T01:59:31.139Z,12.57
2023-03-30T02:00:31.081Z,12.57
2023-03-30T02:01:31.128Z,12.62
2023-03-30T02:02:31.075Z,12.56
2023-03-30T02:03:31.073Z,12.49
2023-03-30T02:04:30.986Z,12.56
2023-03-30T02:05:30.983Z,12.59
2023-03-30T02:06:30.939Z,12.56
2023-03-30T02:07:30.924Z,12.60
2023-03-30T02:08:30.915Z,12.53
2023-03-30T02:09:30.873Z,12.60
2023-03-30T02:10:30.847Z,12.54
2023-03-30T02:11:30.819Z,12.52
2023-03-30T02:12:30.802Z,12.56
2023-03-30T02:13:30.780Z,12.56
2023-03-30T02:14:30.750Z,12.60
2023-03-30T02:15:30.737Z,12.49
2023-03-30T02:16:30.726Z,12.52
2023-03-30T02:17:30.707Z,12.47
2023-03-30T02:18:30.656Z,12.52
2023-03-30T02:19:30.632Z,12.52
2023-03-30T02:20:30.606Z,12.52
2023-03-30T02:21:30.585Z,12.52
2023-03-30T02:22:30.561Z,12.39
2023-03-30T02:23:30.541Z,12.39
2023-03-30T02:24:30.560Z,12.42
2023-03-30T02:25:30.488Z,12.52
2023-03-30T02:26:30.461Z,12.37
2023-03-30T02:27:30.439Z,12.46
2023-03-30T02:28:30.416Z,12.50
2023-03-30T02:29:30.394Z,12.42
2023-03-30T02:30:30.366Z,12.37
2023-03-30T02:31:30.382Z,12.39
2023-03-30T02:32:30.332Z,12.38
2023-03-30T02:33:30.298Z,12.41
2023-03-30T02:34:30.270Z,12.52
2023-03-30T02:35:30.295Z,12.50
2023-03-30T02:36:30.230Z,12.53
2023-03-30T02:37:30.212Z,12.53
2023-03-30T02:38:30.176Z,12.50
2023-03-30T02:39:30.160Z,12.59
2023-03-30T02:40:30.154Z,12.56
2023-03-30T02:41:30.112Z,12.49
2023-03-30T02:42:30.081Z,12.59
2023-03-30T02:43:30.069Z,12.59
2023-03-30T02:44:30.032Z,12.72
2023-03-30T02:45:30.035Z,12.78
2023-03-30T02:46:29.988Z,12.83
2023-03-30T02:47:30.036Z,12.92
2023-03-30T02:48:29.938Z,12.95
2023-03-30T02:49:29.916Z,12.96
2023-03-30T02:50:29.904Z,12.97
2023-03-30T02:51:29.868Z,13.01
2023-03-30T02:52:29.849Z,13.01
2023-03-30T02:53:29.820Z,13.14
2023-03-30T02:54:29.798Z,13.19
2023-03-30T02:55:29.776Z,13.10
2023-03-30T02:56:29.770Z,13.20
2023-03-30T02:57:29.729Z,13.17
2023-03-30T02:58:29.698Z,13.10
2023-03-30T02:59:29.685Z,13.12
2023-03-30T03:00:29.662Z,13.11
2023-03-30T03:01:29.665Z,13.07
2023-03-30T03:02:29.688Z,13.22
2023-03-30T03:03:29.720Z,13.17
2023-03-30T03:04:29.558Z,13.14
2023-03-30T03:05:29.538Z,13.22
2023-03-30T03:06:29.514Z,13.15
2023-03-30T03:07:29.491Z,13.17
2023-03-30T03:08:29.463Z,13.20
2023-03-30T03:09:29.448Z,13.23
2023-03-30T03:10:29.419Z,13.32
2023-03-30T03:11:29.399Z,13.23
2023-03-30T03:12:29.400Z,13.32
2023-03-30T03:13:29.347Z,13.33
2023-03-30T03:14:29.319Z,13.41
2023-03-30T03:15:29.297Z,13.41
2023-03-30T03:16:29.352Z,13.32
2023-03-30T03:17:29.291Z,13.29
2023-03-30T03:18:29.224Z,13.33
2023-03-30T03:19:29.214Z,13.28
2023-03-30T03:20:29.183Z,13.17
2023-03-30T03:21:29.165Z,13.29
2023-03-30T03:22:29.139Z,13.22
2023-03-30T03:23:29.110Z,13.26
2023-03-30T03:24:29.081Z,13.23
2023-03-30T03:25:29.063Z,13.19
2023-03-30T03:26:29.036Z,13.28
2023-03-30T03:27:29.014Z,13.19
2023-03-30T03:28:29.011Z,13.19
2023-03-30T03:29:28.984Z,13.17
2023-03-30T03:30:28.946Z,13.22
2023-03-30T03:31:28.948Z,13.17
2023-03-30T03:32:28.923Z,13.10
2023-03-30T03:33:28.877Z,13.04
2023-03-30T03:34:28.845Z,13.04
2023-03-30T03:35:28.827Z,13.04
2023-03-30T03:36:28.811Z,13.03
2023-03-30T03:37:28.778Z,12.97
2023-03-30T03:38:28.761Z,12.96
2023-03-30T03:39:28.729Z,12.89
2023-03-30T03:40:28.703Z,12.95
2023-03-30T03:41:28.681Z,12.78
2023-03-30T03:42:28.664Z,12.93
2023-03-30T03:43:28.641Z,12.83
2023-03-30T03:44:28.627Z,12.79
2023-03-30T03:45:28.594Z,12.75
2023-03-30T03:46:28.627Z,12.95
2023-03-30T03:47:28.589Z,12.95
2023-03-30T03:48:28.549Z,12.95
2023-03-30T03:49:28.507Z,12.93
2023-03-30T03:50:28.475Z,12.95
2023-03-30T03:51:28.450Z,12.93
2023-03-30T03:52:28.421Z,12.95
2023-03-30T03:53:28.395Z,12.87
2023-03-30T03:54:28.377Z,12.95
2023-03-30T03:55:28.378Z,12.93
2023-03-30T03:56:28.322Z,12.86
2023-03-30T03:57:28.330Z,12.92
2023-03-30T03:58:28.286Z,12.97
2023-03-30T03:59:28.256Z,12.93
2023-03-30T04:00:28.300Z,13.03
2023-03-30T04:01:28.208Z,13.03
2023-03-30T04:02:28.420Z,13.12
2023-03-30T04:03:28.174Z,13.12
2023-03-30T04:04:28.194Z,13.11
2023-03-30T04:05:28.116Z,13.10
2023-03-30T04:06:28.087Z,13.08
2023-03-30T04:07:28.069Z,13.12
2023-03-30T04:08:28.040Z,13.00
2023-03-30T04:09:28.024Z,13.03
2023-03-30T04:10:28.005Z,13.07
2023-03-30T04:11:27.981Z,13.08
2023-03-30T04:12:27.952Z,13.11
2023-03-30T04:13:27.936Z,13.10
2023-03-30T04:14:27.898Z,13.10
2023-03-30T04:15:27.884Z,13.10
2023-03-30T04:16:27.926Z,13.19
2023-03-30T04:17:27.872Z,13.15
2023-03-30T04:18:27.807Z,13.28
2023-03-30T04:19:27.828Z,13.29
2023-03-30T04:20:27.753Z,13.25
2023-03-30T04:21:27.742Z,13.33
2023-03-30T04:22:27.727Z,13.39
2023-03-30T04:23:27.684Z,13.45
2023-03-30T04:24:27.669Z,13.55
2023-03-30T04:25:27.635Z,13.59
2023-03-30T04:26:27.613Z,13.73
2023-03-30T04:27:27.588Z,13.87
2023-03-30T04:28:27.560Z,13.81
2023-03-30T04:29:27.544Z,13.89
2023-03-30T04:30:27.518Z,13.91
2023-03-30T04:31:27.552Z,13.96
2023-03-30T04:32:27.518Z,14.00
2023-03-30T04:33:27.461Z,13.99
2023-03-30T04:34:27.421Z,14.14
2023-03-30T04:35:27.405Z,14.07
2023-03-30T04:36:27.372Z,13.95
2023-03-30T04:37:27.355Z,14.02
2023-03-30T04:38:27.327Z,14.00
2023-03-30T04:39:27.305Z,14.03
2023-03-30T04:40:27.286Z,14.00
2023-03-30T04:41:27.262Z,14.00
2023-03-30T04:42:27.233Z,14.00
2023-03-30T04:43:27.216Z,14.04
2023-03-30T04:44:27.188Z,14.03
2023-03-30T04:45:27.253Z,14.03
2023-03-30T04:46:27.139Z,13.99
2023-03-30T04:47:27.170Z,14.10
2023-03-30T04:48:27.123Z,14.17
2023-03-30T04:49:27.071Z,14.09
2023-03-30T04:50:27.056Z,14.22
2023-03-30T04:51:27.036Z,14.24
2023-03-30T04:52:27.001Z,14.28
2023-03-30T04:53:26.981Z,14.27
2023-03-30T04:54:26.953Z,14.32
2023-03-30T04:55:26.939Z,14.39
2023-03-30T04:56:26.903Z,14.42
2023-03-30T04:57:26.902Z,14.39
2023-03-30T04:58:26.861Z,14.42
2023-03-30T04:59:26.842Z,14.32
2023-03-30T05:00:26.814Z,14.29
2023-03-30T05:01:26.891Z,14.27
2023-03-30T05:02:26.805Z,14.39
2023-03-30T05:03:26.957Z,14.28
2023-03-30T05:04:26.757Z,14.36
2023-03-30T05:05:26.703Z,14.25
2023-03-30T05:06:26.672Z,14.24
2023-03-30T05:07:26.648Z,14.35
2023-03-30T05:08:26.628Z,14.27
2023-03-30T05:09:26.612Z,14.22
2023-03-30T05:10:26.581Z,14.20
2023-03-30T05:11:26.583Z,14.14
2023-03-30T05:12:26.533Z,14.15
2023-03-30T05:13:26.512Z,14.15
2023-03-30T05:14:26.483Z,14.22
2023-03-30T05:15:26.463Z,14.17
2023-03-30T05:16:26.503Z,14.22
2023-03-30T05:17:26.432Z,14.28
2023-03-30T05:18:26.397Z,14.27
2023-03-30T05:19:26.376Z,14.25
2023-03-30T05:20:26.368Z,14.33
2023-03-30T05:21:26.319Z,14.33
2023-03-30T05:22:26.294Z,14.22
2023-03-30T05:23:26.299Z,14.24
2023-03-30T05:24:26.253Z,14.20
2023-03-30T05:25:26.230Z,14.27
2023-03-30T05:26:26.254Z,14.25
2023-03-30T05:27:26.188Z,14.24
2023-03-30T05:28:26.153Z,14.27
2023-03-30T05:29:26.138Z,14.28
2023-03-30T05:30:26.110Z,14.22
2023-03-30T05:31:26.153Z,14.24
2023-03-30T05:32:26.108Z,14.21
2023-03-30T05:33:26.088Z,14.17
2023-03-30T05:34:26.013Z,14.12
2023-03-30T05:35:26.000Z,14.14
2023-03-30T05:36:25.992Z,14.20
2023-03-30T05:37:25.954Z,14.10
2023-03-30T05:38:25.920Z,14.18
2023-03-30T05:39:25.898Z,14.06
2023-03-30T05:40:25.875Z,14.07
2023-03-30T05:41:25.853Z,14.04
2023-03-30T05:42:25.830Z,14.10
2023-03-30T05:43:25.806Z,14.04
2023-03-30T05:44:25.788Z,13.95
2023-03-30T05:45:25.765Z,13.92
2023-03-30T05:46:25.822Z,13.92
2023-03-30T05:47:25.738Z,13.85
2023-03-30T05:48:25.687Z,13.82
2023-03-30T05:49:25.677Z,13.77
2023-03-30T05:50:25.639Z,13.87
2023-03-30T05:51:25.622Z,13.87
2023-03-30T05:52:25.616Z,13.82
2023-03-30T05:53:25.574Z,13.82
2023-03-30T05:54:25.545Z,13.81
2023-03-30T05:55:25.522Z,13.81
2023-03-30T05:56:25.501Z,13.79
2023-03-30T05:57:25.533Z,13.87
2023-03-30T05:58:25.460Z,13.73
2023-03-30T05:59:25.429Z,13.85
2023-03-30T06:00:25.405Z,13.79
2023-03-30T06:01:25.384Z,13.82
2023-03-30T06:02:25.459Z,13.82
2023-03-30T06:03:25.438Z,13.88
2023-03-30T06:04:25.320Z,13.81
2023-03-30T06:05:25.283Z,13.89
2023-03-30T06:06:25.266Z,13.88
2023-03-30T06:07:25.236Z,13.89
2023-03-30T06:08:25.241Z,13.95
2023-03-30T06:09:25.195Z,13.96
2023-03-30T06:10:25.171Z,14.02
2023-03-30T06:11:25.144Z,13.92
2023-03-30T06:12:25.128Z,14.09
2023-03-30T06:13:25.102Z,14.07
2023-03-30T06:14:25.073Z,14.12
2023-03-30T06:15:25.049Z,14.21
2023-03-30T06:16:25.087Z,14.18
2023-03-30T06:17:25.472Z,14.21
2023-03-30T06:18:24.994Z,14.27
2023-03-30T06:19:24.955Z,14.27
2023-03-30T06:20:24.935Z,14.22
2023-03-30T06:21:24.908Z,14.17
2023-03-30T06:22:24.894Z,14.14
2023-03-30T06:23:24.867Z,14.20
2023-03-30T06:24:24.876Z,14.18
2023-03-30T06:25:24.833Z,14.20
2023-03-30T06:26:24.802Z,14.18
2023-03-30T06:27:24.768Z,14.21
2023-03-30T06:28:24.753Z,14.22
2023-03-30T06:29:24.733Z,14.20
2023-03-30T06:30:24.702Z,14.24
2023-03-30T06:31:24.707Z,14.24
2023-03-30T06:32:24.882Z,14.22
2023-03-30T06:33:24.627Z,14.27
2023-03-30T06:34:24.620Z,14.27
2023-03-30T06:35:24.587Z,14.36
2023-03-30T06:36:45.069Z,14.25
2023-03-30T06:37:24.544Z,14.24
2023-03-30T06:38:24.520Z,14.29
2023-03-30T06:39:24.498Z,14.24
2023-03-30T06:40:24.554Z,14.18
2023-03-30T06:41:24.443Z,14.27
2023-03-30T06:42:24.422Z,14.24
2023-03-30T06:43:24.404Z,14.25
2023-03-30T06:44:24.388Z,14.25
2023-03-30T06:45:24.386Z,14.27
2023-03-30T06:46:24.422Z,14.15
2023-03-30T06:47:24.339Z,14.20
2023-03-30T06:48:24.300Z,14.24
2023-03-30T06:49:24.259Z,14.22
2023-03-30T06:50:24.235Z,14.32
2023-03-30T06:51:24.205Z,14.25
2023-03-30T06:52:24.198Z,14.24
2023-03-30T06:53:24.173Z,14.29
2023-03-30T06:54:24.150Z,14.29
2023-03-30T06:55:24.115Z,14.33
2023-03-30T06:56:24.124Z,14.35
2023-03-30T06:57:24.145Z,14.42
2023-03-30T06:58:24.048Z,14.42
2023-03-30T06:59:24.021Z,14.45
2023-03-30T07:00:24.004Z,14.43
2023-03-30T07:01:24.088Z,14.40
2023-03-30T07:02:23.969Z,14.43
2023-03-30T07:03:23.931Z,14.55
2023-03-30T07:04:23.950Z,14.52
2023-03-30T07:05:23.881Z,14.72
2023-03-30T07:06:23.866Z,14.72
2023-03-30T07:07:23.841Z,14.75
2023-03-30T07:08:23.815Z,14.75
2023-03-30T07:09:23.806Z,14.73
2023-03-30T07:10:23.782Z,14.77
2023-03-30T07:11:23.758Z,14.75
2023-03-30T07:12:23.759Z,14.86
2023-03-30T07:13:23.706Z,14.75
2023-03-30T07:14:23.684Z,14.68
2023-03-30T07:15:23.653Z,14.73
2023-03-30T07:16:23.694Z,14.72
2023-03-30T07:17:25.610Z,14.68
2023-03-30T07:18:23.595Z,14.78
2023-03-30T07:19:23.558Z,14.80
2023-03-30T07:20:23.542Z,14.83
2023-03-30T07:21:23.523Z,14.83
2023-03-30T07:22:23.493Z,14.69
2023-03-30T07:23:23.466Z,14.75
2023-03-30T07:24:23.446Z,14.77
2023-03-30T07:25:23.430Z,14.72
2023-03-30T07:26:23.398Z,14.72
2023-03-30T07:27:25.200Z,14.80
2023-03-30T07:28:23.503Z,14.64
2023-03-30T07:29:23.331Z,14.72
2023-03-30T07:30:23.318Z,14.58
2023-03-30T07:31:23.317Z,14.51
2023-03-30T07:32:23.328Z,14.50
2023-03-30T07:33:23.284Z,14.42
2023-03-30T07:34:23.213Z,14.45
2023-03-30T07:35:23.186Z,14.32
2023-03-30T07:36:23.188Z,14.21
2023-03-30T07:37:23.143Z,14.24
2023-03-30T07:38:23.132Z,14.24
2023-03-30T07:39:23.090Z,14.12
2023-03-30T07:40:23.122Z,14.10
2023-03-30T07:41:23.045Z,14.06
2023-03-30T07:42:23.031Z,14.04
2023-03-30T07:43:22.995Z,13.95
2023-03-30T07:44:23.008Z,14.02
2023-03-30T07:45:22.955Z,13.99
2023-03-30T07:46:22.965Z,13.99
2023-03-30T07:47:22.915Z,14.04
2023-03-30T07:48:22.958Z,14.03
2023-03-30T07:49:22.867Z,13.97
2023-03-30T07:50:22.846Z,14.06
2023-03-30T07:51:23.232Z,14.02
2023-03-30T07:52:22.800Z,14.03
2023-03-30T07:53:22.840Z,14.04
2023-03-30T07:54:22.750Z,14.12
2023-03-30T07:55:22.722Z,14.10
2023-03-30T07:56:22.718Z,14.14
2023-03-30T07:57:22.846Z,14.07
2023-03-30T07:58:22.654Z,14.07
2023-03-30T07:59:22.623Z,14.07
2023-03-30T08:00:22.632Z,13.95
2023-03-30T08:01:22.578Z,13.82
2023-03-30T08:02:22.591Z,13.75
2023-03-30T08:03:22.685Z,13.62
2023-03-30T08:04:25.578Z,13.57
2023-03-30T08:05:22.484Z,13.45
2023-03-30T08:06:22.468Z,13.48
2023-03-30T08:07:22.434Z,13.42
2023-03-30T08:08:22.419Z,13.36
2023-03-30T08:09:22.391Z,13.39
2023-03-30T08:10:22.377Z,13.29
2023-03-30T08:11:22.343Z,13.36
2023-03-30T08:12:22.339Z,13.36
2023-03-30T08:13:22.313Z,13.29
2023-03-30T08:14:22.270Z,13.26
2023-03-30T08:15:22.274Z,13.29
2023-03-30T08:16:22.319Z,13.25
2023-03-30T08:17:22.220Z,13.28
2023-03-30T08:18:22.190Z,13.25
2023-03-30T08:19:22.162Z,13.22
2023-03-30T08:20:22.140Z,13.22
2023-03-30T08:21:22.100Z,13.23
2023-03-30T08:22:22.082Z,13.19
2023-03-30T08:23:22.056Z,13.17
2023-03-30T08:24:22.044Z,13.14
2023-03-30T08:25:22.020Z,13.05
2023-03-30T08:26:21.988Z,13.08
2023-03-30T08:27:22.010Z,13.14
2023-03-30T08:28:21.943Z,13.00
2023-03-30T08:29:21.925Z,12.93
2023-03-30T08:30:21.976Z,12.90
2023-03-30T08:31:21.921Z,12.92
2023-03-30T08:32:21.874Z,12.93
2023-03-30T08:33:21.823Z,12.85
2023-03-30T08:34:21.800Z,12.77
2023-03-30T08:35:21.854Z,12.65
2023-03-30T08:36:21.778Z,12.64
2023-03-30T08:37:21.728Z,12.65
2023-03-30T08:38:21.709Z,12.50
2023-03-30T08:39:21.675Z,12.49
2023-03-30T08:40:21.662Z,12.52
2023-03-30T08:41:21.627Z,12.38
2023-03-30T08:42:21.623Z,12.45
2023-03-30T08:43:21.584Z,12.28
2023-03-30T08:44:21.562Z,12.32
2023-03-30T08:45:21.537Z,12.31
2023-03-30T08:46:21.527Z,12.19
2023-03-30T08:47:21.487Z,12.19
2023-03-30T08:48:21.504Z,12.24
2023-03-30T08:49:21.438Z,12.20
2023-03-30T08:50:21.464Z,12.19
2023-03-30T08:51:21.387Z,12.19
2023-03-30T08:52:21.365Z,12.27
2023-03-30T08:53:21.351Z,12.20
2023-03-30T08:54:21.331Z,12.14
2023-03-30T08:55:21.308Z,12.12
2023-03-30T08:56:21.273Z,12.12
2023-03-30T08:57:21.303Z,12.14
2023-03-30T08:58:21.229Z,12.16
2023-03-30T08:59:21.209Z,12.17
2023-03-30T09:00:21.223Z,12.24
2023-03-30T09:01:21.183Z,12.23
2023-03-30T09:02:21.132Z,12.20
2023-03-30T09:03:21.163Z,12.35
2023-03-30T09:04:21.112Z,12.34
2023-03-30T09:05:21.099Z,12.38
2023-03-30T09:06:21.043Z,12.35
2023-03-30T09:07:21.008Z,12.49
2023-03-30T09:08:20.990Z,12.52
2023-03-30T09:09:20.958Z,12.74
2023-03-30T09:10:20.960Z,12.77
2023-03-30T09:11:20.916Z,12.77
2023-03-30T09:12:20.892Z,12.79
2023-03-30T09:13:20.867Z,12.93
2023-03-30T09:14:20.845Z,13.05
2023-03-30T09:15:20.818Z,13.04
2023-03-30T09:16:20.840Z,13.17
2023-03-30T09:17:20.777Z,13.11
2023-03-30T09:18:20.754Z,13.17
2023-03-30T09:19:20.722Z,13.29
2023-03-30T09:21:20.776Z,13.46
2023-03-30T09:39:47.775Z,14.21
2023-03-30T09:40:47.709Z,14.20
2023-03-30T09:41:47.698Z,14.21
2023-03-30T09:42:47.666Z,14.32
2023-03-30T09:43:47.645Z,14.24
2023-03-30T09:44:47.620Z,14.25
2023-03-30T09:45:47.664Z,14.25
2023-03-30T09:46:47.572Z,14.40
2023-03-30T09:47:47.607Z,14.51
2023-03-30T09:48:47.526Z,14.50
2023-03-30T09:49:47.515Z,14.52
2023-03-30T09:50:47.490Z,14.61
2023-03-30T09:51:47.456Z,14.65
2023-03-30T09:52:47.428Z,14.54
2023-03-30T09:53:47.420Z,14.68
2023-03-30T09:54:47.383Z,14.60
2023-03-30T09:55:47.430Z,14.70
2023-03-30T09:56:47.407Z,14.64
2023-03-30T09:57:47.320Z,14.58
2023-03-30T09:58:47.303Z,14.69
2023-03-30T09:59:47.267Z,14.72
2023-03-30T10:00:47.253Z,14.81
2023-03-30T10:01:47.253Z,14.73
2023-03-30T10:02:47.256Z,14.77
2023-03-30T10:03:47.385Z,14.60
2023-03-30T10:04:47.196Z,14.64
2023-03-30T10:05:47.137Z,14.58
2023-03-30T10:06:47.116Z,14.62
2023-03-30T10:07:47.090Z,14.52
2023-03-30T10:08:47.074Z,14.57
2023-03-30T10:09:47.037Z,14.54
2023-03-30T10:10:47.015Z,14.40
2023-03-30T10:11:47.020Z,14.50
2023-03-30T10:12:46.969Z,14.42
2023-03-30T10:13:46.950Z,14.45
2023-03-30T10:14:46.945Z,14.42
2023-03-30T10:15:46.919Z,14.37
2023-03-30T10:16:46.873Z,14.39
2023-03-30T10:17:46.896Z,14.55
2023-03-30T10:18:46.832Z,14.57
2023-03-30T10:19:50.485Z,14.58
2023-03-30T10:20:46.786Z,14.55
2023-03-30T10:21:46.768Z,14.54
2023-03-30T10:22:46.736Z,14.69
2023-03-30T10:23:46.714Z,14.61
2023-03-30T10:24:46.693Z,14.60
2023-03-30T10:25:46.664Z,14.64
2023-03-30T10:26:46.748Z,14.70
2023-03-30T10:27:46.651Z,14.58
2023-03-30T10:28:46.601Z,14.54
2023-03-30T10:29:46.586Z,14.65
2023-03-30T10:30:46.550Z,14.62
2023-03-30T10:31:46.597Z,14.54
2023-03-30T10:32:46.570Z,14.68
2023-03-30T10:33:46.495Z,14.55
2023-03-30T10:34:46.475Z,14.55
2023-03-30T10:35:46.487Z,14.51
2023-03-30T10:36:49.300Z,14.54
2023-03-30T10:37:46.395Z,14.58
2023-03-30T10:38:46.369Z,14.61
2023-03-30T10:39:46.351Z,14.70
2023-03-30T10:40:46.319Z,14.75
2023-03-30T10:41:46.305Z,14.89
2023-03-30T10:42:46.269Z,14.84
2023-03-30T10:43:46.287Z,14.92
2023-03-30T10:44:46.229Z,14.91
2023-03-30T10:45:46.216Z,15.01
2023-03-30T10:46:46.190Z,15.03
2023-03-30T10:47:46.183Z,15.03
2023-03-30T10:48:46.140Z,14.95
2023-03-30T10:49:46.108Z,14.99
2023-03-30T10:50:46.094Z,15.06
2023-03-30T10:51:46.077Z,15.03
2023-03-30T10:52:56.300Z,15.02
2023-03-30T10:53:46.032Z,14.96
2023-03-30T10:54:45.998Z,15.03
2023-03-30T10:55:45.982Z,15.01
2023-03-30T10:56:45.980Z,14.88
2023-03-30T10:57:45.929Z,14.86
2023-03-30T10:58:45.905Z,14.72
2023-03-30T10:59:45.921Z,14.72
2023-03-30T11:00:45.931Z,14.72
2023-03-30T11:01:45.850Z,14.64
2023-03-30T11:02:45.951Z,14.69
2023-03-30T11:03:45.927Z,14.57
2023-03-30T11:04:45.769Z,14.55
2023-03-30T11:05:45.752Z,14.50
2023-03-30T11:06:45.732Z,14.55
2023-03-30T11:07:45.707Z,14.52
2023-03-30T11:08:45.689Z,14.57
2023-03-30T11:09:45.670Z,14.60
2023-03-30T11:10:45.640Z,14.69
2023-03-30T11:11:45.615Z,14.64
2023-03-30T11:12:45.592Z,14.65
2023-03-30T11:13:45.577Z,14.72
2023-03-30T11:14:45.542Z,14.80
2023-03-30T11:15:45.546Z,14.83
2023-03-30T11:16:45.512Z,14.89
2023-03-30T11:17:45.649Z,14.92
2023-03-30T11:18:45.491Z,14.95
2023-03-30T11:19:45.423Z,14.92
2023-03-30T11:20:45.404Z,14.91
2023-03-30T11:21:45.387Z,14.95
2023-03-30T11:22:45.372Z,14.91
2023-03-30T11:23:45.352Z,14.84
2023-03-30T11:24:45.309Z,14.95
2023-03-30T11:25:45.289Z,14.89
2023-03-30T11:26:45.295Z,15.03
2023-03-30T11:27:45.245Z,15.16
2023-03-30T11:28:45.245Z,15.19
2023-03-30T11:29:45.213Z,15.17
2023-03-30T11:30:45.171Z,15.31
2023-03-30T11:31:45.289Z,15.29
2023-03-30T11:32:45.166Z,15.35
2023-03-30T11:33:46.800Z,15.41
2023-03-30T11:34:45.080Z,15.44
2023-03-30T11:35:45.088Z,15.44
2023-03-30T11:36:45.035Z,15.27
2023-03-30T11:37:45.016Z,15.23
2023-03-30T11:38:44.994Z,15.27
2023-03-30T11:39:44.985Z,15.38
2023-03-30T11:40:44.965Z,15.46
2023-03-30T11:41:44.933Z,15.47
2023-03-30T11:42:44.894Z,15.53
2023-03-30T11:43:44.886Z,15.53
2023-03-30T11:44:44.929Z,15.50
2023-03-30T11:45:44.955Z,15.49
2023-03-30T11:46:44.950Z,15.53
2023-03-30T11:47:44.839Z,15.59
2023-03-30T11:48:44.761Z,15.64
2023-03-30T11:49:44.754Z,15.62
2023-03-30T11:50:45.904Z,15.54
2023-03-30T11:51:44.703Z,15.60
2023-03-30T11:52:44.675Z,15.71
2023-03-30T11:53:44.654Z,15.74
2023-03-30T11:54:56.082Z,15.71
2023-03-30T11:55:44.610Z,15.67
2023-03-30T11:56:44.614Z,15.64
2023-03-30T11:57:44.566Z,15.43
2023-03-30T11:58:44.548Z,15.25
2023-03-30T11:59:46.361Z,15.23
2023-03-30T12:00:44.498Z,15.11
2023-03-30T12:01:44.476Z,15.16
2023-03-30T12:02:44.552Z,15.13
2023-03-30T12:03:44.616Z,15.13
2023-03-30T12:04:44.437Z,15.20
2023-03-30T12:05:44.386Z,15.19
2023-03-30T12:06:44.364Z,15.27
2023-03-30T12:07:44.339Z,15.11
2023-03-30T12:08:44.319Z,15.13
2023-03-30T12:09:44.301Z,15.07
2023-03-30T12:10:44.268Z,14.96
2023-03-30T12:11:44.251Z,15.03
2023-03-30T12:12:44.227Z,14.94
2023-03-30T12:13:51.117Z,14.92
2023-03-30T12:14:44.180Z,15.01
2023-03-30T12:15:44.168Z,15.16
2023-03-30T12:16:44.155Z,15.39
2023-03-30T12:17:44.144Z,15.47
2023-03-30T12:18:44.087Z,15.49
2023-03-30T12:19:55.136Z,15.53
2023-03-30T12:20:44.050Z,15.68
2023-03-30T12:21:44.039Z,15.68
2023-03-30T12:22:43.996Z,15.62
2023-03-30T12:23:43.976Z,15.71
2023-03-30T12:24:43.951Z,15.82
2023-03-30T12:25:43.955Z,15.83
2023-03-30T12:26:49.118Z,15.92
2023-03-30T12:27:43.887Z,15.89
2023-03-30T12:29:03.425Z,15.89
2023-03-30T12:30:43.818Z,15.89
2023-03-30T12:31:43.909Z,15.92
2023-03-30T12:32:43.783Z,15.86
2023-03-30T12:33:43.755Z,15.82
2023-03-30T12:34:43.727Z,15.84
2023-03-30T12:35:43.789Z,15.86
2023-03-30T12:36:43.694Z,15.96
2023-03-30T12:37:43.664Z,15.96
2023-03-30T12:38:43.635Z,15.94
2023-03-30T12:39:43.616Z,15.84
2023-03-30T12:40:43.591Z,15.89
2023-03-30T12:41:43.575Z,15.92
2023-03-30T12:42:43.548Z,15.86
2023-03-30T12:43:43.530Z,15.92
2023-03-30T12:44:43.506Z,16.00
2023-03-30T12:45:43.514Z,16.05
2023-03-30T12:46:43.459Z,16.09
2023-03-30T12:47:43.509Z,16.27
2023-03-30T12:48:43.423Z,16.28
2023-03-30T12:49:43.401Z,16.24
2023-03-30T12:50:43.370Z,16.24
2023-03-30T12:51:43.377Z,16.02
2023-03-30T12:52:43.325Z,16.17
2023-03-30T12:53:43.305Z,16.23
2023-03-30T12:54:43.278Z,16.28
2023-03-30T12:55:43.258Z,16.07
2023-03-30T12:56:43.269Z,16.11
2023-03-30T12:57:43.219Z,16.07
2023-03-30T12:58:43.199Z,16.11
2023-03-30T12:59:43.173Z,16.09
2023-03-30T13:00:43.144Z,16.05
2023-03-30T13:01:43.190Z,16.02
2023-03-30T13:02:43.176Z,16.15
2023-03-30T13:03:43.089Z,16.20
2023-03-30T13:04:43.108Z,16.15
2023-03-30T13:05:43.044Z,16.30
2023-03-30T13:06:43.017Z,16.35
2023-03-30T13:07:43.011Z,16.43
2023-03-30T13:08:42.976Z,16.38
2023-03-30T13:09:42.963Z,16.41
2023-03-30T13:10:42.925Z,16.45
2023-03-30T13:11:42.917Z,16.38